首页
METAR-TAF:

METAR-TAF

机场 :

本-古里安国际机场

特拉维夫 / 本·古里安, 以色列

纬度: 32-00N, 经度: 034-54E, 海拔: 40米

当前天气观测

该预报发布于22分钟前的18:20 UTC
风速5节,风向东南
温度 9°C
湿度 76%
气压 1025 hPa
能见度10公里或以上
少量云层高于5000英尺

METAR: LLBG 241820Z 14005KT 9999 FEW050 09/05 Q1025 NOSIG

时间: 20:42 (18:42 UTC)

预报

该预报发布于1小时和36分钟前的17:06 UTC
预报有效从24日的 18点(UTC)到 25日的 18点(UTC)
风速4节,风向东北
能见度10公里或以上
散云层高于5000英尺
短暂存在
从 25日的 00点(UTC)到 25日的 07点(UTC)
风速4节,风向东转东南
多云层高于4000英尺
成为
从 25日的 07点(UTC)到 25日的 09点(UTC)
风速10节,风向北转西北
能见度10公里或以上
1500米以下无云,无积雨云
成为
从 25日的 15点(UTC)到 25日的 17点(UTC)
风速3节,风向多变

TAF: LLBG 241706Z 2418/2518 04004KT 9999 SCT050 TEMPO 2500/2507 12004KT BKN040 BECMG 2507/2509 34010KT CAVOK BECMG 2515/2517 VRB03KT TX15/2512Z TN07/2504Z

超过4000个机场的气象观测和天气预报(METAR&TAF报告)。

可查询的气象台以黄色和红色小点在地图上表示。

将鼠标移到小点上方,可查看气象台名称。

然后点击查看天气观测和预报。

如需切换地图:点击带黑十字的绿色按钮放大地图;点击带横线的绿色按钮缩小地图;或者点击绿色箭头查看邻近地区的地图。


METAR-TAF: